Time;durP1;ratioP1;P1;durP2;ratioP2;P2;SDS_P1;SDS_P2;PMS_P1;PMS_P2;Temp;Humidity;BMP_temperature;BMP_pressure;BME280_temperature;BME280_humidity;BME280_pressure;Samples;Min_cycle;Max_cycle;Signal;HPM_P1;HPM_P2
2022/09/29 00:00:28;;;;;;;;;;;;;;;16.19;66.52;98993.59;5003214;28;19913;-86
2022/09/29 00:03:13;;;;;;;;;;;;;;;16.20;66.51;98999.84;4999058;28;19913;-85
2022/09/29 00:05:57;;;;;;;;;;;;;;;16.09;66.97;98997.13;4999278;28;19913;-86
2022/09/29 00:08:42;;;;;;;;;;;;;;;16.12;66.94;98998.28;4999761;28;19914;-87
2022/09/29 00:11:27;;;;;;;;;;;;;;;16.26;66.19;98999.03;4999445;28;19917;-86
2022/09/29 00:14:11;;;;;;;;;;;;;;;16.24;65.93;99001.41;5003345;28;19913;-86
2022/09/29 00:16:56;;;;;;;;;;;;;;;16.26;65.97;99001.00;4999913;28;20289;-86
2022/09/29 00:19:40;;;;;;;;;;;;;;;16.19;66.23;99015.53;4999420;28;19914;-87
2022/09/29 00:22:25;;;;;;;;;;;;;;;16.21;65.99;99004.13;5000704;28;20393;-85
2022/09/29 00:25:09;;;;;;;;;;;;;;;16.21;66.28;99006.88;4998863;28;20309;-86
2022/09/29 00:27:53;;;;;;;;;;;;;;;16.32;65.54;99006.88;4999699;28;19921;-85
2022/09/29 00:30:38;;;;;;;;;;;;;;;16.38;65.28;99010.78;5005072;28;20369;-86
2022/09/29 00:33:22;;;;;;;;;;;;;;;16.20;65.82;99014.31;4982767;28;19914;-86
2022/09/29 00:36:09;;;;;;;;;;;;;;;16.25;65.87;99018.66;4979983;28;20381;-85
2022/09/29 00:38:55;;;;;;;;;;;;;;;15.92;66.99;99017.09;5034198;23;19925;-86
2022/09/29 00:41:40;;;;;;;;;;;;;;;15.73;67.86;99025.72;5018471;28;19917;-86
2022/09/29 00:44:44;;;;;;;;;;;;;;;15.57;68.43;99025.31;5026383;28;19913;-87
2022/09/29 00:47:30;;;;;;;;;;;;;;;15.49;68.93;99023.72;5026758;28;19918;-87
2022/09/29 00:50:20;;;;;;;;;;;;;;;15.45;69.20;99020.94;5009166;28;19918;-85
2022/09/29 00:53:10;;;;;;;;;;;;;;;15.46;69.22;99030.75;5003894;28;19913;-86
2022/09/29 00:55:55;;;;;;;;;;;;;;;15.43;69.47;99028.00;5009353;28;20365;-86
2022/09/29 00:58:39;;;;;;;;;;;;;;;15.49;69.17;99023.72;5003344;28;19914;-86
2022/09/29 01:01:25;;;;;;;;;;;;;;;15.51;68.99;99015.88;5006257;28;19918;-87
2022/09/29 01:04:12;;;;;;;;;;;;;;;15.51;69.27;99018.63;5017767;28;19913;-87
2022/09/29 01:06:57;;;;;;;;;;;;;;;15.48;69.27;99017.44;5009166;28;19917;-86
2022/09/29 01:09:42;;;;;;;;;;;;;;;15.51;69.05;99010.41;5003595;28;19914;-85
2022/09/29 01:12:27;;;;;;;;;;;;;;;15.59;68.72;99018.28;5008622;28;19914;-87
2022/09/29 01:15:13;;;;;;;;;;;;;;;15.87;66.96;99014.75;5012216;28;19910;-88
2022/09/29 01:17:57;;;;;;;;;;;;;;;15.55;68.59;99013.94;5016885;28;19922;-88
2022/09/29 01:20:50;;;;;;;;;;;;;;;15.40;69.33;99002.16;5018002;28;19913;-89
2022/09/29 01:23:44;;;;;;;;;;;;;;;15.56;68.56;99001.81;5006294;28;19918;-90
2022/09/29 01:26:32;;;;;;;;;;;;;;;15.77;67.58;98996.34;5016338;28;19917;-89
2022/09/29 01:29:17;;;;;;;;;;;;;;;15.83;67.33;98998.31;5012732;28;19914;-87
2022/09/29 01:32:18;;;;;;;;;;;;;;;15.67;67.92;99002.63;5017268;28;19914;-88
2022/09/29 01:35:26;;;;;;;;;;;;;;;15.52;68.62;98996.34;5018024;28;20304;-89
2022/09/29 01:38:16;;;;;;;;;;;;;;;15.82;66.81;98995.97;5011243;28;19913;-88
2022/09/29 01:41:09;;;;;;;;;;;;;;;15.74;67.15;98997.16;5015805;28;19913;-88
2022/09/29 01:43:53;;;;;;;;;;;;;;;15.87;66.62;98998.31;5012618;28;19914;-89
2022/09/29 01:46:43;;;;;;;;;;;;;;;15.83;66.79;98998.31;5005079;28;19918;-89
2022/09/29 01:49:30;;;;;;;;;;;;;;;15.93;65.73;99010.44;5006684;28;19913;-88
2022/09/29 01:52:18;;;;;;;;;;;;;;;15.63;66.71;99004.59;5009059;28;19917;-88
2022/09/29 01:55:16;;;;;;;;;;;;;;;15.52;67.68;99014.75;5010915;28;19914;-88
2022/09/29 01:58:06;;;;;;;;;;;;;;;15.34;69.12;99014.66;5005179;28;20349;-87
2022/09/29 02:00:54;;;;;;;;;;;;;;;15.04;70.60;99009.50;5003074;28;19913;-88
2022/09/29 02:03:42;;;;;;;;;;;;;;;14.89;70.91;99003.22;5003549;28;19913;-88
2022/09/29 02:06:31;;;;;;;;;;;;;;;15.07;70.59;99000.53;5005531;28;19917;-88
2022/09/29 02:09:20;;;;;;;;;;;;;;;15.37;68.96;99008.44;5005144;28;19914;-87
2022/09/29 02:12:07;;;;;;;;;;;;;;;15.25;69.31;99006.84;5009856;28;19921;-87
2022/09/29 02:14:53;;;;;;;;;;;;;;;15.00;70.65;99011.44;5010388;28;19913;-88
2022/09/29 02:25:26;;;;;;;;;;;;;;;14.74;72.15;99023.47;5007335;28;19913;-87
2022/09/29 02:28:11;;;;;;;;;;;;;;;15.11;70.70;99017.75;5007067;28;19917;-87
2022/09/29 02:30:56;;;;;;;;;;;;;;;15.30;69.56;99022.88;5008053;28;19914;-89
2022/09/29 02:33:41;;;;;;;;;;;;;;;15.42;68.77;99027.22;5024997;28;19914;-90
2022/09/29 02:36:32;;;;;;;;;;;;;;;15.56;68.04;99027.25;5006979;28;19913;-90
2022/09/29 02:39:35;;;;;;;;;;;;;;;15.65;67.63;99024.13;5002911;28;20368;-89
2022/09/29 02:42:26;;;;;;;;;;;;;;;15.68;67.48;99029.63;5007110;28;20452;-90
2022/09/29 02:45:20;;;;;;;;;;;;;;;15.67;67.42;99030.81;5005693;28;19914;-90
2022/09/29 02:48:33;;;;;;;;;;;;;;;15.72;67.08;99029.63;4997310;28;19918;-90
2022/09/29 02:51:22;;;;;;;;;;;;;;;15.67;67.42;99028.06;5008571;28;19913;-90
2022/09/29 02:54:19;;;;;;;;;;;;;;;15.65;67.32;99029.63;5009621;28;19914;-89
2022/09/29 02:57:16;;;;;;;;;;;;;;;15.61;67.21;99021.41;5009570;28;19913;-91
2022/09/29 03:00:05;;;;;;;;;;;;;;;15.54;67.83;99026.88;5003267;28;19913;-91
2022/09/29 03:02:50;;;;;;;;;;;;;;;15.57;67.65;99022.56;5011420;28;19914;-90
2022/09/29 03:05:35;;;;;;;;;;;;;;;15.54;67.92;99020.63;5010807;28;19917;-90
2022/09/29 03:08:19;;;;;;;;;;;;;;;15.52;67.98;99018.25;5006570;28;19918;-91
2022/09/29 03:11:04;;;;;;;;;;;;;;;15.56;68.01;99019.03;5002266;28;19914;-89
2022/09/29 03:13:49;;;;;;;;;;;;;;;15.67;67.53;99006.16;5009107;28;19914;-89
2022/09/29 03:16:34;;;;;;;;;;;;;;;15.69;67.39;99016.72;5015161;28;19914;-89
2022/09/29 03:19:18;;;;;;;;;;;;;;;15.54;67.67;99012.41;5001547;28;19913;-88
2022/09/29 03:22:03;;;;;;;;;;;;;;;15.50;67.73;99012.34;5008973;28;19913;-90
2022/09/29 03:24:47;;;;;;;;;;;;;;;15.57;67.54;99011.63;5011936;28;20405;-88
2022/09/29 03:27:32;;;;;;;;;;;;;;;15.57;67.51;99008.88;5008544;28;19917;-89
2022/09/29 03:30:17;;;;;;;;;;;;;;;15.58;67.49;99003.00;5008930;28;19914;-90
2022/09/29 03:33:02;;;;;;;;;;;;;;;15.53;67.58;99008.88;5011238;28;19913;-90
2022/09/29 03:35:46;;;;;;;;;;;;;;;15.48;67.89;99009.22;5011263;28;19913;-89
2022/09/29 03:38:31;;;;;;;;;;;;;;;15.49;67.93;99012.75;5003479;28;19914;-90
2022/09/29 03:41:17;;;;;;;;;;;;;;;15.49;68.15;99007.28;5006001;28;19913;-90
2022/09/29 03:44:02;;;;;;;;;;;;;;;15.51;68.38;99010.41;5011060;28;19913;-89
2022/09/29 03:46:46;;;;;;;;;;;;;;;15.49;68.26;99007.28;5006148;28;19917;-89
2022/09/29 03:49:31;;;;;;;;;;;;;;;15.54;68.35;99004.19;5003738;28;20329;-89
2022/09/29 03:52:15;;;;;;;;;;;;;;;15.48;68.40;98997.50;5015258;28;19913;-90
2022/09/29 03:55:00;;;;;;;;;;;;;;;15.47;68.61;99004.91;5008625;28;19914;-89
2022/09/29 03:57:45;;;;;;;;;;;;;;;15.23;69.55;99005.66;5007456;28;19918;-89
2022/09/29 04:00:30;;;;;;;;;;;;;;;15.31;68.66;99001.75;5018644;28;19913;-89
2022/09/29 04:03:15;;;;;;;;;;;;;;;15.15;69.22;98999.38;5008136;28;20293;-89
2022/09/29 04:05:59;;;;;;;;;;;;;;;15.12;69.60;99002.91;5013968;28;19921;-89
2022/09/29 04:08:43;;;;;;;;;;;;;;;15.05;70.01;99007.56;5010443;28;20381;-89
2022/09/29 04:11:28;;;;;;;;;;;;;;;15.04;70.11;99004.03;4994197;28;20324;-89
2022/09/29 04:14:12;;;;;;;;;;;;;;;15.02;70.14;99003.66;5011977;28;19913;-90
2022/09/29 04:16:57;;;;;;;;;;;;;;;14.96;70.12;99002.47;5014019;28;19914;-89
2022/09/29 04:19:42;;;;;;;;;;;;;;;15.12;69.93;99011.13;5009513;28;19914;-88
2022/09/29 04:22:27;;;;;;;;;;;;;;;15.19;69.57;98997.44;5015325;28;19913;-89
2022/09/29 04:25:11;;;;;;;;;;;;;;;15.10;69.37;98999.75;5015346;28;19913;-89
2022/09/29 04:27:56;;;;;;;;;;;;;;;14.83;70.29;99006.72;5013642;28;19918;-88
2022/09/29 04:30:40;;;;;;;;;;;;;;;14.89;69.93;99010.63;5014024;28;19914;-88
2022/09/29 04:33:25;;;;;;;;;;;;;;;14.83;70.88;99012.19;5012245;28;19918;-87
2022/09/29 04:36:09;;;;;;;;;;;;;;;14.79;71.38;99000.44;5014089;28;19914;-87
2022/09/29 04:38:54;;;;;;;;;;;;;;;14.80;71.07;98999.25;4995431;28;19914;-87
2022/09/29 04:41:40;;;;;;;;;;;;;;;14.73;71.61;99002.00;5009213;28;20300;-90
2022/09/29 04:44:24;;;;;;;;;;;;;;;14.73;71.33;99002.00;4988757;28;19918;-88
2022/09/29 04:47:09;;;;;;;;;;;;;;;14.63;72.33;99022.63;5000243;28;19917;-89
2022/09/29 04:49:53;;;;;;;;;;;;;;;14.67;72.59;99030.88;5000040;28;20305;-89
2022/09/29 04:52:40;;;;;;;;;;;;;;;14.88;71.35;99022.78;4998297;28;19921;-88
2022/09/29 04:55:24;;;;;;;;;;;;;;;15.08;70.38;99013.06;4992626;28;19918;-90
2022/09/29 04:58:10;;;;;;;;;;;;;;;15.21;70.03;99008.78;5008589;28;19922;-91
2022/09/29 05:00:54;;;;;;;;;;;;;;;15.22;69.88;99029.53;5002836;28;20318;-82
2022/09/29 05:03:39;;;;;;;;;;;;;;;15.23;70.08;99024.84;5006338;28;20382;-83
2022/09/29 05:06:24;;;;;;;;;;;;;;;15.36;69.52;99035.03;4999127;28;20284;-82
2022/09/29 05:09:08;;;;;;;;;;;;;;;15.41;69.25;99033.88;4992994;28;19918;-85
2022/09/29 05:11:53;;;;;;;;;;;;;;;15.39;69.48;99042.47;4996758;28;19913;-85
2022/09/29 05:14:37;;;;;;;;;;;;;;;15.43;69.58;99039.75;5004962;28;19914;-85
2022/09/29 05:17:22;;;;;;;;;;;;;;;15.42;69.83;99038.19;5002079;28;19914;-85
2022/09/29 05:20:06;;;;;;;;;;;;;;;15.45;69.14;99050.31;4995741;28;19914;-84
2022/09/29 05:22:51;;;;;;;;;;;;;;;15.44;68.91;99041.28;4995983;28;19913;-85
2022/09/29 05:25:36;;;;;;;;;;;;;;;15.19;70.04;99041.22;4994062;28;19914;-84
2022/09/29 05:28:20;;;;;;;;;;;;;;;15.10;70.70;99040.03;4995207;28;19917;-86
2022/09/29 05:31:07;;;;;;;;;;;;;;;15.21;70.31;99044.38;4992366;28;19914;-85
2022/09/29 05:33:51;;;;;;;;;;;;;;;15.13;70.55;99033.81;4994454;28;19914;-84
2022/09/29 05:36:36;;;;;;;;;;;;;;;15.23;70.52;99044.78;5001928;28;19914;-84
2022/09/29 05:39:20;;;;;;;;;;;;;;;15.38;70.43;99051.09;5005388;28;19914;-84
2022/09/29 05:42:08;;;;;;;;;;;;;;;15.47;70.13;99056.97;5007385;28;19918;-83
2022/09/29 05:44:53;;;;;;;;;;;;;;;15.46;70.39;99060.09;5005285;28;19913;-84
2022/09/29 05:47:42;;;;;;;;;;;;;;;15.55;70.33;99058.56;5004959;28;19918;-85
2022/09/29 05:50:26;;;;;;;;;;;;;;;15.55;70.54;99058.56;5006535;28;19914;-85
2022/09/29 05:53:11;;;;;;;;;;;;;;;15.62;70.66;99049.59;5007384;28;19914;-85
2022/09/29 05:55:55;;;;;;;;;;;;;;;15.63;70.85;99059.38;5005723;28;19925;-85
2022/09/29 05:58:42;;;;;;;;;;;;;;;15.58;71.11;99046.06;5003875;28;19914;-85
2022/09/29 06:01:26;;;;;;;;;;;;;;;15.64;71.50;99061.75;5005361;28;20373;-86
2022/09/29 06:04:11;;;;;;;;;;;;;;;15.67;71.70;99060.16;5004247;28;19914;-86
2022/09/29 06:06:56;;;;;;;;;;;;;;;15.67;71.86;99060.94;5008891;28;19909;-86
2022/09/29 06:09:40;;;;;;;;;;;;;;;15.72;72.15;99063.31;5003274;28;19913;-88
2022/09/29 06:12:25;;;;;;;;;;;;;;;15.69;72.49;99060.56;5007654;28;19918;-88
2022/09/29 06:15:10;;;;;;;;;;;;;;;15.76;73.17;99066.03;5008556;28;19909;-87
2022/09/29 06:17:55;;;;;;;;;;;;;;;15.79;73.42;99057.06;5003846;28;20308;-87
2022/09/29 06:20:39;;;;;;;;;;;;;;;15.87;73.55;99058.63;5012539;28;19909;-85
2022/09/29 06:23:24;;;;;;;;;;;;;;;15.96;73.69;99055.47;5014951;28;19913;-84
2022/09/29 06:26:10;;;;;;;;;;;;;;;16.03;73.61;99050.78;4994561;28;19914;-84
2022/09/29 06:28:55;;;;;;;;;;;;;;;16.11;73.40;99057.84;5001609;28;19917;-89
2022/09/29 06:31:39;;;;;;;;;;;;;;;15.93;74.23;99070.75;5006598;28;19914;-89
2022/09/29 06:34:24;;;;;;;;;;;;;;;15.70;75.95;99073.06;5003289;28;19914;-89
2022/09/29 06:40:12;;;;;;;;;;;;;;;15.72;76.54;99073.47;5044771;23;20377;-83
2022/09/29 06:42:57;;;;;;;;;;;;;;;15.59;78.17;99086.78;5024265;28;20381;-82
2022/09/29 06:45:41;;;;;;;;;;;;;;;15.56;78.81;99094.97;5021097;28;19913;-85
2022/09/29 06:48:28;;;;;;;;;;;;;;;15.64;79.26;99083.66;5019821;28;19921;-82
2022/09/29 06:51:13;;;;;;;;;;;;;;;15.70;79.05;99076.59;5020853;28;19913;-81
2022/09/29 06:53:58;;;;;;;;;;;;;;;15.98;77.23;99077.81;5021286;28;19913;-82
2022/09/29 06:56:45;;;;;;;;;;;;;;;16.16;75.61;99087.59;5021027;28;19913;-83
2022/09/29 06:59:30;;;;;;;;;;;;;;;16.26;75.21;99075.84;5019700;28;19913;-83
2022/09/29 07:02:14;;;;;;;;;;;;;;;16.26;76.08;99070.34;5016059;28;20304;-77
2022/09/29 07:04:58;;;;;;;;;;;;;;;16.80;74.60;99081.28;5019111;28;19917;-77
2022/09/29 07:07:43;;;;;;;;;;;;;;;17.06;72.45;99089.84;5033929;28;20388;-76
2022/09/29 07:10:27;;;;;;;;;;;;;;;17.54;70.48;99091.94;5025226;28;19921;-76
2022/09/29 07:13:13;;;;;;;;;;;;;;;17.88;68.59;99094.91;5029374;28;19913;-76
2022/09/29 07:16:08;;;;;;;;;;;;;;;18.03;67.94;99076.34;5027013;28;20396;-76
2022/09/29 07:18:52;;;;;;;;;;;;;;;18.18;67.65;99086.03;5032224;28;19913;-76
2022/09/29 07:21:37;;;;;;;;;;;;;;;18.21;67.64;99108.03;5030129;28;19913;-76
2022/09/29 07:24:23;;;;;;;;;;;;;;;18.19;67.74;99118.63;5038169;28;19917;-76
2022/09/29 07:27:08;;;;;;;;;;;;;;;18.18;67.93;99121.81;5027225;28;19913;-78
2022/09/29 07:41:15;;;;;;;;;;;;;;;18.43;66.78;99100.38;5033728;28;19917;-80
2022/09/29 07:44:00;;;;;;;;;;;;;;;18.45;66.36;99075.16;5021898;28;19913;-78
2022/09/29 07:46:44;;;;;;;;;;;;;;;18.45;67.24;99072.41;5022669;28;19912;-81
2022/09/29 07:49:28;;;;;;;;;;;;;;;18.50;67.66;99075.50;5017492;28;19922;-83
2022/09/29 07:52:13;;;;;;;;;;;;;;;18.53;67.84;99099.50;5022366;28;20296;-81
2022/09/29 07:54:58;;;;;;;;;;;;;;;18.38;68.67;99100.81;5031044;28;20293;-79
2022/09/29 07:57:42;;;;;;;;;;;;;;;18.38;68.72;99114.56;5034736;28;19976;-77
2022/09/29 08:00:29;;;;;;;;;;;;;;;18.53;67.91;99106.97;5027773;28;20373;-79
2022/09/29 08:03:14;;;;;;;;;;;;;;;18.60;66.96;99109.66;5036043;28;19913;-79
2022/09/29 08:05:58;;;;;;;;;;;;;;;18.53;67.42;99105.00;5035500;28;19916;-81
2022/09/29 08:08:43;;;;;;;;;;;;;;;18.57;68.09;99107.75;5033120;28;19921;-80
2022/09/29 08:11:27;;;;;;;;;;;;;;;18.53;68.01;99107.75;5037816;28;19913;-80
2022/09/29 08:14:12;;;;;;;;;;;;;;;18.56;68.10;99122.69;5029653;28;19913;-81
2022/09/29 08:16:56;;;;;;;;;;;;;;;18.62;68.34;99123.81;5031369;28;19913;-78
2022/09/29 08:19:40;;;;;;;;;;;;;;;18.63;68.39;99114.38;5034845;28;19913;-80
2022/09/29 08:22:25;;;;;;;;;;;;;;;18.68;68.18;99120.22;5033681;28;19912;-79
2022/09/29 08:25:10;;;;;;;;;;;;;;;18.72;68.07;99128.44;5033281;28;19913;-81
2022/09/29 08:27:54;;;;;;;;;;;;;;;18.70;67.83;99134.34;5033482;28;19917;-81
2022/09/29 08:30:38;;;;;;;;;;;;;;;18.72;67.82;99145.75;5029708;28;19917;-80
2022/09/29 08:33:23;;;;;;;;;;;;;;;18.75;67.17;99139.41;5024994;28;19913;-81
2022/09/29 08:36:13;;;;;;;;;;;;;;;18.80;67.22;99133.47;5036620;28;19913;-81
2022/09/29 08:38:58;;;;;;;;;;;;;;;18.84;66.99;99130.69;5034783;28;20388;-79
2022/09/29 08:41:49;;;;;;;;;;;;;;;18.83;66.65;99131.88;5033007;28;19912;-80
2022/09/29 08:44:50;;;;;;;;;;;;;;;18.83;66.75;99142.88;5036807;28;19913;-79
2022/09/29 08:47:37;;;;;;;;;;;;;;;18.84;67.16;99143.69;5026925;28;19917;-80
2022/09/29 08:50:22;;;;;;;;;;;;;;;18.85;67.29;99147.97;5031629;28;19913;-78
2022/09/29 08:53:08;;;;;;;;;;;;;;;18.85;66.36;99150.72;5033231;28;20372;-78
2022/09/29 08:56:01;;;;;;;;;;;;;;;18.84;66.39;99144.47;5032517;28;20384;-78
2022/09/29 08:58:46;;;;;;;;;;;;;;;18.80;66.50;99146.44;5030894;28;19913;-81
2022/09/29 09:01:34;;;;;;;;;;;;;;;18.73;66.43;99152.03;5022389;28;19913;-79
2022/09/29 09:04:28;;;;;;;;;;;;;;;18.69;66.63;99151.28;5033427;28;19917;-78
2022/09/29 09:07:31;;;;;;;;;;;;;;;18.69;66.42;99159.56;5029907;28;19916;-80
2022/09/29 09:10:15;;;;;;;;;;;;;;;18.74;66.78;99156.38;5032293;28;19925;-75
2022/09/29 09:13:26;;;;;;;;;;;;;;;18.65;66.72;99156.81;5027719;28;19912;-76
2022/09/29 09:16:23;;;;;;;;;;;;;;;18.72;66.05;99148.50;5037659;28;19913;-76
2022/09/29 09:19:10;;;;;;;;;;;;;;;18.70;66.74;99142.59;5027799;28;19913;-79
2022/09/29 09:22:02;;;;;;;;;;;;;;;18.78;66.11;99135.84;5032370;28;19921;-76
2022/09/29 09:24:47;;;;;;;;;;;;;;;18.85;66.09;99131.44;5035575;28;19913;-77
2022/09/29 09:27:36;;;;;;;;;;;;;;;18.86;65.75;99127.50;5034092;28;19913;-76
2022/09/29 09:30:21;;;;;;;;;;;;;;;18.91;66.15;99133.34;5028536;28;19913;-77
2022/09/29 09:33:10;;;;;;;;;;;;;;;18.91;65.32;99130.59;5022985;28;19913;-79
2022/09/29 09:36:02;;;;;;;;;;;;;;;18.98;65.84;99138.00;5041723;28;20399;-78
2022/09/29 09:38:50;;;;;;;;;;;;;;;18.97;65.78;99141.94;5037198;28;19913;-78
2022/09/29 09:41:36;;;;;;;;;;;;;;;19.05;65.21;99133.19;5020553;28;20297;-78
2022/09/29 09:44:32;;;;;;;;;;;;;;;19.09;64.64;99135.94;5023085;28;19913;-75
2022/09/29 09:47:39;;;;;;;;;;;;;;;19.06;64.54;99133.97;5035685;28;20427;-76
2022/09/29 09:50:24;;;;;;;;;;;;;;;19.15;64.41;99120.47;5035242;28;19917;-74
2022/09/29 09:53:15;;;;;;;;;;;;;;;19.17;64.56;99120.88;5041731;28;19912;-76
2022/09/29 09:56:27;;;;;;;;;;;;;;;19.17;64.40;99107.88;5036559;28;19917;-76
2022/09/29 09:59:19;;;;;;;;;;;;;;;19.23;64.15;99111.75;5038551;28;19917;-77
2022/09/29 10:02:04;;;;;;;;;;;;;;;19.34;64.11;99113.59;5034231;28;19913;-76
2022/09/29 10:04:50;;;;;;;;;;;;;;;19.32;64.05;99102.97;5026110;28;19916;-77
2022/09/29 10:07:35;;;;;;;;;;;;;;;19.38;64.22;99104.06;5031437;28;19913;-76
2022/09/29 10:10:21;;;;;;;;;;;;;;;19.38;63.64;99104.06;5038163;28;19916;-75
2022/09/29 10:13:10;;;;;;;;;;;;;;;19.35;64.52;99102.13;5030648;28;19917;-75
2022/09/29 10:15:58;;;;;;;;;;;;;;;19.37;64.28;99108.00;5029880;28;19913;-75
2022/09/29 10:18:44;;;;;;;;;;;;;;;19.43;63.67;99113.84;5027072;28;19918;-76
2022/09/29 10:21:35;;;;;;;;;;;;;;;19.51;64.36;99105.09;5030499;28;19917;-76
2022/09/29 10:24:21;;;;;;;;;;;;;;;19.52;64.32;99114.94;5035206;28;19917;-76
2022/09/29 10:27:06;;;;;;;;;;;;;;;19.42;63.54;99117.81;5037190;28;19913;-73
2022/09/29 10:29:55;;;;;;;;;;;;;;;19.46;63.52;99118.56;5026066;28;20308;-75
2022/09/29 10:32:43;;;;;;;;;;;;;;;19.49;63.48;99113.03;5024541;28;19924;-77
2022/09/29 10:35:30;;;;;;;;;;;;;;;19.50;63.38;99114.59;5023817;28;19920;-77
2022/09/29 10:38:27;;;;;;;;;;;;;;;19.64;63.58;99124.63;5033674;28;19913;-77
2022/09/29 10:41:12;;;;;;;;;;;;;;;19.52;63.37;99120.44;5019996;28;19914;-77
2022/09/29 10:44:13;;;;;;;;;;;;;;;19.49;63.87;99113.03;5037901;28;19913;-77
2022/09/29 10:46:57;;;;;;;;;;;;;;;19.47;64.08;99111.84;5022043;28;19921;-77
2022/09/29 10:49:42;;;;;;;;;;;;;;;19.57;63.74;99113.69;5024672;28;19921;-76
2022/09/29 10:52:27;;;;;;;;;;;;;;;19.72;63.34;99117.81;5029302;28;19913;-76
2022/09/29 10:55:22;;;;;;;;;;;;;;;19.53;63.61;99112.97;5032524;28;20380;-77
2022/09/29 10:58:19;;;;;;;;;;;;;;;19.67;63.50;99107.25;5036433;28;19914;-74
2022/09/29 11:01:09;;;;;;;;;;;;;;;19.77;62.56;99102.78;5038392;28;19912;-78
2022/09/29 11:04:02;;;;;;;;;;;;;;;20.00;62.75;99097.31;5030327;28;19913;-77
2022/09/29 11:06:46;;;;;;;;;;;;;;;20.10;61.69;99095.59;5035135;28;19913;-76
2022/09/29 11:09:36;;;;;;;;;;;;;;;20.09;62.17;99097.56;5030023;28;19917;-76
2022/09/29 11:12:33;;;;;;;;;;;;;;;20.11;61.53;99106.22;5032659;28;19913;-76
2022/09/29 11:15:23;;;;;;;;;;;;;;;20.10;61.33;99095.59;5035452;28;19913;-76
2022/09/29 11:18:19;;;;;;;;;;;;;;;20.06;61.85;99087.38;5027168;28;19914;-76
2022/09/29 11:21:12;;;;;;;;;;;;;;;20.19;62.22;99085.56;5037622;28;19913;-77
2022/09/29 11:24:16;;;;;;;;;;;;;;;20.28;61.37;99080.28;5039656;28;19913;-74
2022/09/29 11:27:09;;;;;;;;;;;;;;;20.21;61.02;99085.94;5037796;28;20328;-76
2022/09/29 11:29:57;;;;;;;;;;;;;;;20.18;61.18;99081.25;5040743;28;19916;-75
2022/09/29 11:32:48;;;;;;;;;;;;;;;20.10;61.44;99074.28;5038755;28;19913;-77
2022/09/29 11:35:32;;;;;;;;;;;;;;;20.06;61.47;99077.09;5029396;28;19913;-76
2022/09/29 11:38:40;;;;;;;;;;;;;;;20.21;61.58;99074.91;5034422;28;19913;-77
2022/09/29 11:41:28;;;;;;;;;;;;;;;20.42;60.87;99066.25;5028344;28;19913;-78
2022/09/29 11:44:32;;;;;;;;;;;;;;;20.28;60.97;99068.47;5026039;28;19916;-76
2022/09/29 11:47:35;;;;;;;;;;;;;;;20.48;60.02;99055.50;5033639;28;19913;-75
2022/09/29 11:50:32;;;;;;;;;;;;;;;20.88;58.96;99050.78;5034582;28;19920;-76
2022/09/29 11:53:37;;;;;;;;;;;;;;;21.06;58.08;99050.44;5034853;28;19912;-77
2022/09/29 11:56:30;;;;;;;;;;;;;;;21.04;58.27;99061.16;5038882;28;19913;-78
2022/09/29 11:59:28;;;;;;;;;;;;;;;21.08;57.30;99059.88;5033512;28;20319;-75
2022/09/29 12:02:27;;;;;;;;;;;;;;;21.01;57.55;99054.50;5023563;28;19921;-78
2022/09/29 12:05:25;;;;;;;;;;;;;;;20.77;58.35;99051.03;5028613;28;19913;-76
2022/09/29 12:08:12;;;;;;;;;;;;;;;20.87;59.00;99044.53;5031248;28;20387;-77
2022/09/29 12:11:15;;;;;;;;;;;;;;;21.04;57.68;99042.56;5028784;28;19913;-76
2022/09/29 12:14:06;;;;;;;;;;;;;;;20.64;58.71;99046.53;5031209;28;20380;-77
2022/09/29 12:16:56;;;;;;;;;;;;;;;20.75;58.11;99049.88;5031605;28;19913;-75
2022/09/29 12:19:42;;;;;;;;;;;;;;;20.92;57.96;99048.75;5021276;28;19913;-78
2022/09/29 12:22:27;;;;;;;;;;;;;;;20.97;58.71;99042.75;5025249;28;19913;-76
2022/09/29 12:25:14;;;;;;;;;;;;;;;20.81;58.50;99031.63;5037146;28;19913;-77
2022/09/29 12:28:03;;;;;;;;;;;;;;;20.77;58.05;99028.16;5033067;28;19917;-77
2022/09/29 12:30:50;;;;;;;;;;;;;;;20.43;58.85;99031.13;5032806;28;19916;-76
2022/09/29 12:33:49;;;;;;;;;;;;;;;20.45;58.81;99012.19;5032601;28;19913;-75
2022/09/29 12:36:45;;;;;;;;;;;;;;;20.48;59.58;99012.09;5033079;28;19913;-76
2022/09/29 12:39:32;;;;;;;;;;;;;;;20.38;59.77;99006.78;5046030;23;19922;-81
2022/09/29 12:42:30;;;;;;;;;;;;;;;20.45;59.86;98998.38;5031231;28;20479;-81
2022/09/29 12:45:18;;;;;;;;;;;;;;;20.31;59.89;98991.16;5015695;28;19913;-81
2022/09/29 12:48:02;;;;;;;;;;;;;;;20.30;60.98;98994.28;5016177;28;19913;-81
2022/09/29 12:50:50;;;;;;;;;;;;;;;20.59;60.74;98983.50;5015429;28;20000;-80
2022/09/29 12:53:56;;;;;;;;;;;;;;;20.64;59.60;98983.00;5015729;28;19917;-80
2022/09/29 12:56:45;;;;;;;;;;;;;;;20.98;58.62;98986.25;5017966;28;19913;-80
2022/09/29 12:59:30;;;;;;;;;;;;;;;20.89;58.48;98991.56;5014537;28;20297;-80
2022/09/29 13:02:21;;;;;;;;;;;;;;;20.88;58.55;98990.78;5014690;28;19913;-82
2022/09/29 13:05:05;;;;;;;;;;;;;;;20.97;58.26;98992.22;5016377;28;19913;-83
2022/09/29 13:08:07;;;;;;;;;;;;;;;20.87;58.42;98991.22;5015062;28;19913;-82
2022/09/29 13:10:51;;;;;;;;;;;;;;;20.64;58.61;98996.81;5014959;28;19933;-81
2022/09/29 13:13:39;;;;;;;;;;;;;;;20.73;58.17;98985.97;5015501;28;19914;-82
2022/09/29 13:16:27;;;;;;;;;;;;;;;20.68;59.04;98981.72;5014777;28;19913;-82
2022/09/29 13:19:36;;;;;;;;;;;;;;;20.60;58.88;98977.56;5013708;28;20292;-82
2022/09/29 13:22:39;;;;;;;;;;;;;;;20.46;59.24;98978.63;5011090;28;19913;-82
2022/09/29 13:25:40;;;;;;;;;;;;;;;20.41;59.39;98978.34;5013696;28;20399;-82
2022/09/29 13:28:37;;;;;;;;;;;;;;;20.48;60.55;98972.66;5014181;28;19917;-82
2022/09/29 13:31:26;;;;;;;;;;;;;;;20.64;60.63;98961.69;5017622;28;19913;-82
2022/09/29 13:34:21;;;;;;;;;;;;;;;20.70;59.98;98962.75;5015097;28;21207;-82
2022/09/29 13:37:17;;;;;;;;;;;;;;;20.79;59.55;98970.47;5012428;28;19913;-82
2022/09/29 13:40:04;;;;;;;;;;;;;;;20.72;59.72;98974.16;5011405;28;19944;-82
2022/09/29 13:42:50;;;;;;;;;;;;;;;20.46;59.75;98964.81;5014601;28;19913;-82
2022/09/29 13:45:39;;;;;;;;;;;;;;;20.37;59.91;98967.34;5011661;28;20470;-82
2022/09/29 13:48:30;;;;;;;;;;;;;;;20.32;60.07;98959.53;5006961;28;19917;-83
2022/09/29 13:51:22;;;;;;;;;;;;;;;20.23;60.26;98967.59;5013797;28;19921;-82
2022/09/29 13:54:25;;;;;;;;;;;;;;;20.22;60.92;98968.78;5014844;28;19917;-82
2022/09/29 13:57:21;;;;;;;;;;;;;;;20.13;60.35;98960.28;5018784;28;19921;-83
2022/09/29 14:00:16;;;;;;;;;;;;;;;20.18;60.75;98959.00;5016512;28;19913;-81
2022/09/29 14:03:03;;;;;;;;;;;;;;;20.21;61.00;98966.47;5014233;28;19913;-81
2022/09/29 14:05:52;;;;;;;;;;;;;;;20.11;60.22;98959.94;5010435;28;20381;-82
2022/09/29 14:08:39;;;;;;;;;;;;;;;20.06;60.65;98968.69;4997826;28;19921;-82
2022/09/29 14:11:27;;;;;;;;;;;;;;;20.04;61.08;98966.34;5000685;28;19921;-82
2022/09/29 14:14:20;;;;;;;;;;;;;;;20.02;61.08;98965.19;5014329;28;19913;-83
2022/09/29 14:17:10;;;;;;;;;;;;;;;20.06;60.33;98974.22;5018525;28;19913;-82
2022/09/29 14:19:54;;;;;;;;;;;;;;;20.16;60.18;98973.25;5010881;28;19913;-82
2022/09/29 14:22:42;;;;;;;;;;;;;;;20.18;60.47;98981.09;4997733;28;19913;-81
2022/09/29 14:25:29;;;;;;;;;;;;;;;20.02;60.90;98968.75;5002306;28;19914;-82
2022/09/29 14:28:17;;;;;;;;;;;;;;;20.06;60.51;98974.22;4997811;28;19914;-82
2022/09/29 14:31:03;;;;;;;;;;;;;;;20.02;60.55;98974.25;4997718;28;20385;-82
2022/09/29 14:33:48;;;;;;;;;;;;;;;20.01;61.03;98969.94;5024288;28;19913;-81
2022/09/29 14:36:37;;;;;;;;;;;;;;;19.98;60.75;98975.53;5021117;28;20372;-81
2022/09/29 14:39:25;;;;;;;;;;;;;;;20.00;61.06;98970.38;5020615;28;19918;-81
2022/09/29 14:42:15;;;;;;;;;;;;;;;20.02;60.92;98973.47;5021128;28;19928;-82
2022/09/29 14:54:29;;;;;;;;;;;;;;;19.89;61.21;99000.91;5023521;28;19913;-81
2022/09/29 14:57:24;;;;;;;;;;;;;;;19.87;61.36;98991.47;5020449;28;19913;-81
2022/09/29 15:00:13;;;;;;;;;;;;;;;19.88;61.38;98995.81;5012027;28;19913;-80
2022/09/29 15:02:59;;;;;;;;;;;;;;;20.00;60.91;99004.28;5007663;28;19932;-79
2022/09/29 15:05:44;;;;;;;;;;;;;;;19.81;61.65;98995.94;5015732;28;20293;-78
2022/09/29 15:08:30;;;;;;;;;;;;;;;19.86;61.69;98995.47;5012332;28;20374;-79